Clarkston, Georgia
Current Conditions -  °F | °C
As of 7:10 AM on Saturday 20 Dec 2014 (Local Time) from KPDK Reporting Station
Light Rain Light Rain  
Wind Chill: 40°   Ceiling: 2600
Heat Index: 43°   Visibility: 4mi
Dew Point: 41°   Wind: 5mph
Humidity: 93%   Direction: 340°NNW
Pressure: 30.17"   Gusts: NA
Location:  33.81°N, 84.24°W
Report Text: KPDK 201210Z 34004KT 4SM -RA BR SCT021 BKN026 OVC039 06/05 A3017 RMK AO2 RAB06 P0000 $
Loading
Personal Weather Stations






























Interactive Weather Map New forecast layout! Learn more

10-Day Weather Forecast

Advertisements
Track Severe Weather on mobile